Terminal Aerodrome Forecast
Issued by NWS Twin Cities, MN

Home | Current Version | Previous Version | Graphics & Text | Print | Product List | Glossary On
Versions: 1 2 3 4 5 6 7 8 9 10 11 12 13 14 15 16 17 18 19 20 21 22 23 24 25 26 27
000
FTUS43 KMPX 281514 AAA
TAFMSP
TAF AMD
KMSP 281514Z 2815/2918 19011KT P6SM SCT250
     FM281800 18018G25KT P6SM BKN250
     FM290100 17010KT P6SM BKN090 BKN250
     FM290500 17007KT P6SM VCTS BKN050CB OVC090
     FM290700 17005KT 6SM SHRA BKN020 OVC040
      TEMPO 2908/2912 4SM BR BKN010
     FM291400 26007KT P6SM VCSH OVC020=

USA.gov is the U.S. government's official web portal to all federal, state and local government web resources and services.